sensor_id;sensor_type;location;lat;lon;timestamp;P1;durP1;ratioP1;P2;durP2;ratioP2
27666;SDS011;15074;50.940;5.282;2023-03-08T00:01:13;10.77;;;8.85;;
27666;SDS011;15074;50.940;5.282;2023-03-08T00:03:42;10.80;;;8.13;;
27666;SDS011;15074;50.940;5.282;2023-03-08T00:06:09;10.55;;;8.85;;
27666;SDS011;15074;50.940;5.282;2023-03-08T00:08:37;12.18;;;9.23;;
27666;SDS011;15074;50.940;5.282;2023-03-08T00:11:03;10.82;;;8.60;;
27666;SDS011;15074;50.940;5.282;2023-03-08T00:13:33;11.43;;;9.15;;
27666;SDS011;15074;50.940;5.282;2023-03-08T00:15:59;10.93;;;8.55;;
27666;SDS011;15074;50.940;5.282;2023-03-08T00:18:29;10.77;;;7.88;;
27666;SDS011;15074;50.940;5.282;2023-03-08T00:20:59;9.48;;;7.47;;
27666;SDS011;15074;50.940;5.282;2023-03-08T00:23:25;9.63;;;7.60;;
27666;SDS011;15074;50.940;5.282;2023-03-08T00:25:51;9.95;;;7.70;;
27666;SDS011;15074;50.940;5.282;2023-03-08T00:28:18;9.73;;;7.35;;
27666;SDS011;15074;50.940;5.282;2023-03-08T00:30:43;9.23;;;8.20;;
27666;SDS011;15074;50.940;5.282;2023-03-08T00:33:09;9.25;;;7.72;;
27666;SDS011;15074;50.940;5.282;2023-03-08T00:35:35;9.43;;;8.10;;
27666;SDS011;15074;50.940;5.282;2023-03-08T00:38:00;8.45;;;7.55;;
27666;SDS011;15074;50.940;5.282;2023-03-08T00:40:26;10.60;;;7.28;;
27666;SDS011;15074;50.940;5.282;2023-03-08T00:42:52;10.38;;;8.00;;
27666;SDS011;15074;50.940;5.282;2023-03-08T00:45:17;10.07;;;8.00;;
27666;SDS011;15074;50.940;5.282;2023-03-08T00:47:43;9.68;;;7.88;;
27666;SDS011;15074;50.940;5.282;2023-03-08T00:50:09;9.38;;;8.25;;
27666;SDS011;15074;50.940;5.282;2023-03-08T00:52:35;8.82;;;7.90;;
27666;SDS011;15074;50.940;5.282;2023-03-08T00:55:00;8.93;;;7.32;;
27666;SDS011;15074;50.940;5.282;2023-03-08T00:57:26;9.52;;;7.15;;
27666;SDS011;15074;50.940;5.282;2023-03-08T00:59:52;8.32;;;6.95;;
27666;SDS011;15074;50.940;5.282;2023-03-08T01:02:18;10.32;;;7.43;;
27666;SDS011;15074;50.940;5.282;2023-03-08T01:04:43;8.63;;;6.72;;
27666;SDS011;15074;50.940;5.282;2023-03-08T01:07:09;8.60;;;7.70;;
27666;SDS011;15074;50.940;5.282;2023-03-08T01:09:35;9.45;;;7.15;;
27666;SDS011;15074;50.940;5.282;2023-03-08T01:12:00;10.13;;;7.13;;
27666;SDS011;15074;50.940;5.282;2023-03-08T01:14:26;10.20;;;7.70;;
27666;SDS011;15074;50.940;5.282;2023-03-08T01:16:51;7.68;;;6.60;;
27666;SDS011;15074;50.940;5.282;2023-03-08T01:19:17;27.70;;;15.32;;
27666;SDS011;15074;50.940;5.282;2023-03-08T01:21:43;14.07;;;11.32;;
27666;SDS011;15074;50.940;5.282;2023-03-08T01:24:08;11.40;;;8.38;;
27666;SDS011;15074;50.940;5.282;2023-03-08T01:26:34;7.85;;;6.90;;
27666;SDS011;15074;50.940;5.282;2023-03-08T01:29:00;8.90;;;7.60;;
27666;SDS011;15074;50.940;5.282;2023-03-08T01:31:27;24.10;;;7.80;;
27666;SDS011;15074;50.940;5.282;2023-03-08T01:33:53;9.95;;;7.15;;
27666;SDS011;15074;50.940;5.282;2023-03-08T01:36:21;9.90;;;7.10;;
27666;SDS011;15074;50.940;5.282;2023-03-08T01:38:47;14.63;;;7.75;;
27666;SDS011;15074;50.940;5.282;2023-03-08T01:41:18;9.32;;;7.63;;
27666;SDS011;15074;50.940;5.282;2023-03-08T01:43:52;8.13;;;6.95;;
27666;SDS011;15074;50.940;5.282;2023-03-08T01:51:35;14.32;;;7.03;;
27666;SDS011;15074;50.940;5.282;2023-03-08T01:54:12;8.48;;;6.75;;
27666;SDS011;15074;50.940;5.282;2023-03-08T01:57:01;8.35;;;6.47;;
27666;SDS011;15074;50.940;5.282;2023-03-08T01:59:30;8.98;;;7.75;;
27666;SDS011;15074;50.940;5.282;2023-03-08T02:01:57;8.52;;;7.07;;
27666;SDS011;15074;50.940;5.282;2023-03-08T02:04:24;9.57;;;6.57;;
27666;SDS011;15074;50.940;5.282;2023-03-08T02:06:51;8.02;;;6.38;;
27666;SDS011;15074;50.940;5.282;2023-03-08T02:09:16;9.10;;;7.55;;
27666;SDS011;15074;50.940;5.282;2023-03-08T02:11:43;8.13;;;6.78;;
27666;SDS011;15074;50.940;5.282;2023-03-08T02:14:09;9.27;;;7.45;;
27666;SDS011;15074;50.940;5.282;2023-03-08T02:16:35;9.52;;;7.70;;
27666;SDS011;15074;50.940;5.282;2023-03-08T02:19:04;10.45;;;7.55;;
27666;SDS011;15074;50.940;5.282;2023-03-08T02:21:35;8.73;;;7.78;;
27666;SDS011;15074;50.940;5.282;2023-03-08T02:24:17;9.55;;;7.70;;
27666;SDS011;15074;50.940;5.282;2023-03-08T02:26:44;9.15;;;7.95;;
27666;SDS011;15074;50.940;5.282;2023-03-08T02:29:10;10.00;;;8.10;;
27666;SDS011;15074;50.940;5.282;2023-03-08T02:31:36;9.85;;;7.93;;
27666;SDS011;15074;50.940;5.282;2023-03-08T02:34:02;14.00;;;9.90;;
27666;SDS011;15074;50.940;5.282;2023-03-08T02:36:27;14.05;;;9.25;;
27666;SDS011;15074;50.940;5.282;2023-03-08T02:38:53;17.98;;;10.05;;
27666;SDS011;15074;50.940;5.282;2023-03-08T02:41:19;14.85;;;9.93;;
27666;SDS011;15074;50.940;5.282;2023-03-08T02:43:45;17.90;;;10.15;;
27666;SDS011;15074;50.940;5.282;2023-03-08T02:46:11;17.13;;;10.85;;
27666;SDS011;15074;50.940;5.282;2023-03-08T02:48:37;17.60;;;11.75;;
27666;SDS011;15074;50.940;5.282;2023-03-08T02:51:03;12.48;;;10.77;;
27666;SDS011;15074;50.940;5.282;2023-03-08T02:53:29;21.13;;;12.27;;
27666;SDS011;15074;50.940;5.282;2023-03-08T02:55:55;18.58;;;12.13;;
27666;SDS011;15074;50.940;5.282;2023-03-08T02:58:21;14.93;;;12.52;;
27666;SDS011;15074;50.940;5.282;2023-03-08T03:00:46;24.80;;;15.07;;
27666;SDS011;15074;50.940;5.282;2023-03-08T03:03:12;26.20;;;14.93;;
27666;SDS011;15074;50.940;5.282;2023-03-08T03:05:41;33.05;;;16.23;;
27666;SDS011;15074;50.940;5.282;2023-03-08T03:08:08;29.08;;;16.42;;
27666;SDS011;15074;50.940;5.282;2023-03-08T03:10:35;29.50;;;17.05;;
27666;SDS011;15074;50.940;5.282;2023-03-08T03:13:01;32.78;;;16.02;;
27666;SDS011;15074;50.940;5.282;2023-03-08T03:15:27;31.42;;;17.20;;
27666;SDS011;15074;50.940;5.282;2023-03-08T03:17:53;29.45;;;18.13;;
27666;SDS011;15074;50.940;5.282;2023-03-08T03:20:18;33.63;;;17.60;;
27666;SDS011;15074;50.940;5.282;2023-03-08T03:22:44;25.77;;;16.77;;
27666;SDS011;15074;50.940;5.282;2023-03-08T03:25:11;34.53;;;16.63;;
27666;SDS011;15074;50.940;5.282;2023-03-08T03:27:37;26.13;;;16.38;;
27666;SDS011;15074;50.940;5.282;2023-03-08T03:30:03;34.13;;;16.98;;
27666;SDS011;15074;50.940;5.282;2023-03-08T03:32:31;27.55;;;16.83;;
27666;SDS011;15074;50.940;5.282;2023-03-08T03:34:56;32.38;;;17.45;;
27666;SDS011;15074;50.940;5.282;2023-03-08T03:37:22;24.70;;;15.02;;
27666;SDS011;15074;50.940;5.282;2023-03-08T03:39:48;22.90;;;15.55;;
27666;SDS011;15074;50.940;5.282;2023-03-08T03:42:16;32.72;;;16.63;;
27666;SDS011;15074;50.940;5.282;2023-03-08T03:44:42;31.15;;;16.55;;
27666;SDS011;15074;50.940;5.282;2023-03-08T03:47:08;26.10;;;16.35;;
27666;SDS011;15074;50.940;5.282;2023-03-08T03:49:33;27.85;;;16.20;;
27666;SDS011;15074;50.940;5.282;2023-03-08T03:51:59;24.30;;;14.18;;
27666;SDS011;15074;50.940;5.282;2023-03-08T03:54:25;22.27;;;14.95;;
27666;SDS011;15074;50.940;5.282;2023-03-08T03:56:51;25.33;;;14.35;;
27666;SDS011;15074;50.940;5.282;2023-03-08T03:59:17;22.83;;;14.93;;
27666;SDS011;15074;50.940;5.282;2023-03-08T04:01:43;19.85;;;14.45;;
27666;SDS011;15074;50.940;5.282;2023-03-08T04:04:09;21.33;;;13.63;;
27666;SDS011;15074;50.940;5.282;2023-03-08T04:06:35;20.70;;;14.95;;
27666;SDS011;15074;50.940;5.282;2023-03-08T04:09:02;22.55;;;14.98;;
27666;SDS011;15074;50.940;5.282;2023-03-08T04:11:31;23.80;;;14.82;;
27666;SDS011;15074;50.940;5.282;2023-03-08T04:13:59;27.58;;;14.57;;
27666;SDS011;15074;50.940;5.282;2023-03-08T04:16:25;22.08;;;14.00;;
27666;SDS011;15074;50.940;5.282;2023-03-08T04:18:57;25.42;;;15.15;;
27666;SDS011;15074;50.940;5.282;2023-03-08T04:21:24;27.00;;;15.93;;
27666;SDS011;15074;50.940;5.282;2023-03-08T04:23:50;33.83;;;16.88;;
27666;SDS011;15074;50.940;5.282;2023-03-08T04:26:16;30.13;;;17.08;;
27666;SDS011;15074;50.940;5.282;2023-03-08T04:28:42;29.88;;;17.60;;
27666;SDS011;15074;50.940;5.282;2023-03-08T04:31:12;31.50;;;18.88;;
27666;SDS011;15074;50.940;5.282;2023-03-08T04:33:42;33.40;;;17.15;;
27666;SDS011;15074;50.940;5.282;2023-03-08T04:36:09;36.88;;;18.33;;
27666;SDS011;15074;50.940;5.282;2023-03-08T04:38:35;40.50;;;18.33;;
27666;SDS011;15074;50.940;5.282;2023-03-08T04:41:01;38.80;;;18.98;;
27666;SDS011;15074;50.940;5.282;2023-03-08T04:43:34;32.42;;;17.17;;
27666;SDS011;15074;50.940;5.282;2023-03-08T04:46:00;29.00;;;17.27;;
27666;SDS011;15074;50.940;5.282;2023-03-08T04:48:26;31.10;;;16.55;;
27666;SDS011;15074;50.940;5.282;2023-03-08T04:50:56;36.03;;;15.27;;
27666;SDS011;15074;50.940;5.282;2023-03-08T04:53:23;22.70;;;13.20;;
27666;SDS011;15074;50.940;5.282;2023-03-08T04:55:50;27.77;;;15.30;;
27666;SDS011;15074;50.940;5.282;2023-03-08T04:58:17;27.63;;;15.65;;
27666;SDS011;15074;50.940;5.282;2023-03-08T05:00:43;27.15;;;14.45;;
27666;SDS011;15074;50.940;5.282;2023-03-08T05:03:09;27.88;;;14.18;;
27666;SDS011;15074;50.940;5.282;2023-03-08T05:05:35;24.63;;;13.93;;
27666;SDS011;15074;50.940;5.282;2023-03-08T05:08:01;24.83;;;12.95;;
27666;SDS011;15074;50.940;5.282;2023-03-08T05:10:30;19.23;;;13.77;;
27666;SDS011;15074;50.940;5.282;2023-03-08T05:12:56;22.70;;;13.93;;
27666;SDS011;15074;50.940;5.282;2023-03-08T05:15:22;33.22;;;14.50;;
27666;SDS011;15074;50.940;5.282;2023-03-08T05:17:48;17.77;;;11.45;;
27666;SDS011;15074;50.940;5.282;2023-03-08T05:20:14;17.80;;;11.65;;
27666;SDS011;15074;50.940;5.282;2023-03-08T05:22:40;17.98;;;11.95;;
27666;SDS011;15074;50.940;5.282;2023-03-08T05:25:06;20.17;;;11.48;;
27666;SDS011;15074;50.940;5.282;2023-03-08T05:27:32;16.13;;;11.18;;
27666;SDS011;15074;50.940;5.282;2023-03-08T05:29:58;16.55;;;11.57;;
27666;SDS011;15074;50.940;5.282;2023-03-08T05:32:24;17.40;;;11.20;;
27666;SDS011;15074;50.940;5.282;2023-03-08T05:34:50;13.02;;;10.52;;
27666;SDS011;15074;50.940;5.282;2023-03-08T05:37:16;15.40;;;10.95;;
27666;SDS011;15074;50.940;5.282;2023-03-08T05:39:42;13.50;;;9.82;;
27666;SDS011;15074;50.940;5.282;2023-03-08T05:42:08;14.10;;;9.45;;
27666;SDS011;15074;50.940;5.282;2023-03-08T05:44:36;17.63;;;9.52;;
27666;SDS011;15074;50.940;5.282;2023-03-08T05:47:01;14.23;;;8.65;;
27666;SDS011;15074;50.940;5.282;2023-03-08T05:49:27;11.27;;;8.48;;
27666;SDS011;15074;50.940;5.282;2023-03-08T05:51:53;13.50;;;8.63;;
27666;SDS011;15074;50.940;5.282;2023-03-08T05:54:19;10.00;;;6.32;;
27666;SDS011;15074;50.940;5.282;2023-03-08T05:56:45;9.50;;;6.70;;
27666;SDS011;15074;50.940;5.282;2023-03-08T05:59:11;8.20;;;6.72;;
27666;SDS011;15074;50.940;5.282;2023-03-08T06:01:36;7.60;;;6.45;;
27666;SDS011;15074;50.940;5.282;2023-03-08T06:04:02;9.90;;;6.07;;
27666;SDS011;15074;50.940;5.282;2023-03-08T06:06:28;8.85;;;6.88;;
27666;SDS011;15074;50.940;5.282;2023-03-08T06:08:55;8.30;;;5.65;;
27666;SDS011;15074;50.940;5.282;2023-03-08T06:11:21;8.43;;;6.15;;
27666;SDS011;15074;50.940;5.282;2023-03-08T06:13:47;7.78;;;5.88;;
27666;SDS011;15074;50.940;5.282;2023-03-08T06:16:13;7.22;;;5.07;;
27666;SDS011;15074;50.940;5.282;2023-03-08T06:18:39;7.38;;;5.18;;
27666;SDS011;15074;50.940;5.282;2023-03-08T06:23:32;6.28;;;4.90;;
27666;SDS011;15074;50.940;5.282;2023-03-08T06:25:59;6.80;;;4.95;;
27666;SDS011;15074;50.940;5.282;2023-03-08T06:28:25;6.88;;;4.97;;
27666;SDS011;15074;50.940;5.282;2023-03-08T06:30:52;11.50;;;4.90;;
27666;SDS011;15074;50.940;5.282;2023-03-08T06:33:20;7.20;;;5.07;;
27666;SDS011;15074;50.940;5.282;2023-03-08T06:35:55;8.88;;;5.78;;
27666;SDS011;15074;50.940;5.282;2023-03-08T06:38:28;6.45;;;4.53;;
27666;SDS011;15074;50.940;5.282;2023-03-08T06:40:54;6.28;;;4.72;;
27666;SDS011;15074;50.940;5.282;2023-03-08T06:43:20;6.70;;;5.35;;
27666;SDS011;15074;50.940;5.282;2023-03-08T06:45:46;7.50;;;5.07;;
27666;SDS011;15074;50.940;5.282;2023-03-08T06:48:12;6.93;;;4.22;;
27666;SDS011;15074;50.940;5.282;2023-03-08T06:50:38;6.80;;;4.47;;
27666;SDS011;15074;50.940;5.282;2023-03-08T06:53:04;6.40;;;5.05;;
27666;SDS011;15074;50.940;5.282;2023-03-08T06:55:31;6.70;;;4.50;;
27666;SDS011;15074;50.940;5.282;2023-03-08T06:58:00;7.30;;;4.53;;
27666;SDS011;15074;50.940;5.282;2023-03-08T07:00:25;5.72;;;4.55;;
27666;SDS011;15074;50.940;5.282;2023-03-08T07:02:51;7.90;;;4.60;;
27666;SDS011;15074;50.940;5.282;2023-03-08T07:05:17;10.25;;;5.10;;
27666;SDS011;15074;50.940;5.282;2023-03-08T07:07:43;7.85;;;4.72;;
27666;SDS011;15074;50.940;5.282;2023-03-08T07:10:10;10.55;;;5.90;;
27666;SDS011;15074;50.940;5.282;2023-03-08T07:12:39;8.00;;;5.63;;
27666;SDS011;15074;50.940;5.282;2023-03-08T07:15:08;6.68;;;4.97;;
27666;SDS011;15074;50.940;5.282;2023-03-08T07:17:34;10.32;;;5.63;;
27666;SDS011;15074;50.940;5.282;2023-03-08T07:20:01;8.27;;;5.45;;
27666;SDS011;15074;50.940;5.282;2023-03-08T07:22:30;8.80;;;6.20;;
27666;SDS011;15074;50.940;5.282;2023-03-08T07:24:56;7.93;;;6.45;;
27666;SDS011;15074;50.940;5.282;2023-03-08T07:27:22;8.85;;;6.95;;
27666;SDS011;15074;50.940;5.282;2023-03-08T07:29:48;8.93;;;6.35;;
27666;SDS011;15074;50.940;5.282;2023-03-08T07:32:14;9.13;;;6.10;;
27666;SDS011;15074;50.940;5.282;2023-03-08T07:34:40;13.00;;;6.65;;
27666;SDS011;15074;50.940;5.282;2023-03-08T07:37:10;9.70;;;6.75;;
27666;SDS011;15074;50.940;5.282;2023-03-08T07:39:39;9.95;;;6.90;;
27666;SDS011;15074;50.940;5.282;2023-03-08T07:42:06;9.10;;;7.20;;
27666;SDS011;15074;50.940;5.282;2023-03-08T07:44:32;9.88;;;7.13;;
27666;SDS011;15074;50.940;5.282;2023-03-08T07:46:58;10.15;;;6.95;;
27666;SDS011;15074;50.940;5.282;2023-03-08T07:49:23;9.23;;;7.45;;
27666;SDS011;15074;50.940;5.282;2023-03-08T07:51:49;11.90;;;7.97;;
27666;SDS011;15074;50.940;5.282;2023-03-08T07:54:17;9.43;;;8.10;;
27666;SDS011;15074;50.940;5.282;2023-03-08T07:56:43;10.20;;;8.00;;
27666;SDS011;15074;50.940;5.282;2023-03-08T07:59:10;9.90;;;7.15;;
27666;SDS011;15074;50.940;5.282;2023-03-08T08:01:36;9.35;;;7.43;;
27666;SDS011;15074;50.940;5.282;2023-03-08T08:04:01;13.07;;;8.75;;
27666;SDS011;15074;50.940;5.282;2023-03-08T08:06:27;8.85;;;6.75;;
27666;SDS011;15074;50.940;5.282;2023-03-08T08:08:54;10.75;;;7.93;;
27666;SDS011;15074;50.940;5.282;2023-03-08T08:11:20;10.48;;;8.05;;
27666;SDS011;15074;50.940;5.282;2023-03-08T08:13:46;9.48;;;8.25;;
27666;SDS011;15074;50.940;5.282;2023-03-08T08:16:12;11.50;;;8.65;;
27666;SDS011;15074;50.940;5.282;2023-03-08T08:18:39;11.82;;;9.55;;
27666;SDS011;15074;50.940;5.282;2023-03-08T08:21:06;10.60;;;8.70;;
27666;SDS011;15074;50.940;5.282;2023-03-08T08:23:34;10.88;;;9.30;;
27666;SDS011;15074;50.940;5.282;2023-03-08T08:26:03;11.30;;;9.90;;
27666;SDS011;15074;50.940;5.282;2023-03-08T08:28:30;10.95;;;9.30;;
27666;SDS011;15074;50.940;5.282;2023-03-08T08:31:04;11.55;;;9.68;;
27666;SDS011;15074;50.940;5.282;2023-03-08T08:33:31;10.65;;;9.55;;
27666;SDS011;15074;50.940;5.282;2023-03-08T08:35:58;11.57;;;10.25;;
27666;SDS011;15074;50.940;5.282;2023-03-08T08:38:24;13.10;;;9.95;;
27666;SDS011;15074;50.940;5.282;2023-03-08T08:40:50;10.75;;;9.65;;
27666;SDS011;15074;50.940;5.282;2023-03-08T08:43:16;13.70;;;8.82;;
27666;SDS011;15074;50.940;5.282;2023-03-08T08:45:45;11.77;;;8.85;;
27666;SDS011;15074;50.940;5.282;2023-03-08T08:48:17;16.83;;;10.40;;
27666;SDS011;15074;50.940;5.282;2023-03-08T08:50:42;10.20;;;9.05;;
27666;SDS011;15074;50.940;5.282;2023-03-08T08:53:08;12.15;;;10.00;;
27666;SDS011;15074;50.940;5.282;2023-03-08T08:55:34;12.20;;;10.18;;
27666;SDS011;15074;50.940;5.282;2023-03-08T08:58:00;14.15;;;9.98;;
27666;SDS011;15074;50.940;5.282;2023-03-08T09:00:27;11.25;;;10.10;;
27666;SDS011;15074;50.940;5.282;2023-03-08T09:02:53;13.77;;;10.13;;
27666;SDS011;15074;50.940;5.282;2023-03-08T09:05:18;18.73;;;10.90;;
27666;SDS011;15074;50.940;5.282;2023-03-08T09:07:44;13.90;;;10.27;;
27666;SDS011;15074;50.940;5.282;2023-03-08T09:10:10;14.38;;;10.40;;
27666;SDS011;15074;50.940;5.282;2023-03-08T09:12:36;12.40;;;9.65;;
27666;SDS011;15074;50.940;5.282;2023-03-08T09:15:02;12.38;;;8.90;;
27666;SDS011;15074;50.940;5.282;2023-03-08T09:17:28;16.63;;;9.88;;
27666;SDS011;15074;50.940;5.282;2023-03-08T09:19:54;11.63;;;10.43;;
27666;SDS011;15074;50.940;5.282;2023-03-08T09:22:20;11.48;;;9.73;;
27666;SDS011;15074;50.940;5.282;2023-03-08T09:24:47;11.25;;;9.45;;
27666;SDS011;15074;50.940;5.282;2023-03-08T09:27:13;11.88;;;10.68;;
27666;SDS011;15074;50.940;5.282;2023-03-08T09:29:39;10.73;;;9.63;;
27666;SDS011;15074;50.940;5.282;2023-03-08T09:32:05;10.65;;;9.52;;
27666;SDS011;15074;50.940;5.282;2023-03-08T09:34:31;11.52;;;9.55;;
27666;SDS011;15074;50.940;5.282;2023-03-08T09:36:56;10.63;;;9.20;;
27666;SDS011;15074;50.940;5.282;2023-03-08T09:39:22;12.48;;;11.10;;
27666;SDS011;15074;50.940;5.282;2023-03-08T09:47:15;14.00;;;12.23;;
27666;SDS011;15074;50.940;5.282;2023-03-08T09:50:32;16.00;;;12.63;;
27666;SDS011;15074;50.940;5.282;2023-03-08T09:55:31;16.40;;;13.77;;
27666;SDS011;15074;50.940;5.282;2023-03-08T09:58:23;15.77;;;14.18;;
27666;SDS011;15074;50.940;5.282;2023-03-08T10:00:59;17.20;;;14.27;;
27666;SDS011;15074;50.940;5.282;2023-03-08T10:04:06;15.77;;;13.20;;
27666;SDS011;15074;50.940;5.282;2023-03-08T10:06:49;14.65;;;13.00;;
27666;SDS011;15074;50.940;5.282;2023-03-08T10:09:32;17.38;;;12.40;;
27666;SDS011;15074;50.940;5.282;2023-03-08T10:14:57;15.80;;;12.52;;
27666;SDS011;15074;50.940;5.282;2023-03-08T10:17:51;19.08;;;13.40;;
27666;SDS011;15074;50.940;5.282;2023-03-08T10:20:25;11.93;;;10.73;;
27666;SDS011;15074;50.940;5.282;2023-03-08T10:22:58;13.32;;;11.13;;
27666;SDS011;15074;50.940;5.282;2023-03-08T10:25:37;11.25;;;9.90;;
27666;SDS011;15074;50.940;5.282;2023-03-08T10:28:05;11.00;;;9.90;;
27666;SDS011;15074;50.940;5.282;2023-03-08T10:30:55;10.05;;;8.73;;
27666;SDS011;15074;50.940;5.282;2023-03-08T10:33:23;11.00;;;9.07;;
27666;SDS011;15074;50.940;5.282;2023-03-08T10:36:02;10.75;;;9.65;;
27666;SDS011;15074;50.940;5.282;2023-03-08T10:38:30;9.80;;;8.55;;
27666;SDS011;15074;50.940;5.282;2023-03-08T10:41:19;10.75;;;9.65;;
27666;SDS011;15074;50.940;5.282;2023-03-08T10:43:45;10.82;;;9.75;;
27666;SDS011;15074;50.940;5.282;2023-03-08T10:46:11;10.18;;;9.00;;
27666;SDS011;15074;50.940;5.282;2023-03-08T10:48:38;10.23;;;9.00;;
27666;SDS011;15074;50.940;5.282;2023-03-08T10:51:05;11.00;;;9.68;;
27666;SDS011;15074;50.940;5.282;2023-03-08T10:53:39;10.27;;;9.23;;
27666;SDS011;15074;50.940;5.282;2023-03-08T10:56:20;10.93;;;9.52;;
27666;SDS011;15074;50.940;5.282;2023-03-08T10:58:48;11.32;;;9.77;;
27666;SDS011;15074;50.940;5.282;2023-03-08T11:01:46;11.15;;;10.05;;
27666;SDS011;15074;50.940;5.282;2023-03-08T11:04:19;10.10;;;8.32;;
27666;SDS011;15074;50.940;5.282;2023-03-08T11:06:46;16.85;;;10.13;;
27666;SDS011;15074;50.940;5.282;2023-03-08T11:11:48;9.90;;;8.90;;
27666;SDS011;15074;50.940;5.282;2023-03-08T11:14:14;11.60;;;10.38;;
27666;SDS011;15074;50.940;5.282;2023-03-08T11:38:45;11.65;;;10.45;;
27666;SDS011;15074;50.940;5.282;2023-03-08T11:50:04;12.25;;;11.05;;
27666;SDS011;15074;50.940;5.282;2023-03-08T11:52:50;12.85;;;10.20;;
27666;SDS011;15074;50.940;5.282;2023-03-08T11:55:31;10.32;;;8.75;;
27666;SDS011;15074;50.940;5.282;2023-03-08T11:58:16;12.35;;;11.05;;
27666;SDS011;15074;50.940;5.282;2023-03-08T12:01:02;13.48;;;11.68;;
27666;SDS011;15074;50.940;5.282;2023-03-08T12:03:42;11.85;;;10.55;;
27666;SDS011;15074;50.940;5.282;2023-03-08T12:14:34;14.90;;;12.48;;
27666;SDS011;15074;50.940;5.282;2023-03-08T12:17:21;18.67;;;13.55;;
27666;SDS011;15074;50.940;5.282;2023-03-08T12:19:51;13.95;;;11.48;;
27666;SDS011;15074;50.940;5.282;2023-03-08T12:27:33;19.80;;;15.18;;
27666;SDS011;15074;50.940;5.282;2023-03-08T12:33:03;23.70;;;16.00;;
27666;SDS011;15074;50.940;5.282;2023-03-08T12:35:31;26.88;;;17.02;;
27666;SDS011;15074;50.940;5.282;2023-03-08T12:38:04;18.02;;;15.23;;
27666;SDS011;15074;50.940;5.282;2023-03-08T12:40:51;31.35;;;18.33;;
27666;SDS011;15074;50.940;5.282;2023-03-08T12:45:44;17.48;;;14.38;;
27666;SDS011;15074;50.940;5.282;2023-03-08T12:48:17;18.20;;;14.85;;
27666;SDS011;15074;50.940;5.282;2023-03-08T12:50:55;20.67;;;15.18;;
27666;SDS011;15074;50.940;5.282;2023-03-08T12:53:29;23.60;;;15.82;;
27666;SDS011;15074;50.940;5.282;2023-03-08T12:58:47;25.60;;;17.88;;
27666;SDS011;15074;50.940;5.282;2023-03-08T13:01:22;18.08;;;14.70;;
27666;SDS011;15074;50.940;5.282;2023-03-08T13:03:52;21.08;;;14.80;;
27666;SDS011;15074;50.940;5.282;2023-03-08T13:08:51;21.13;;;16.45;;
27666;SDS011;15074;50.940;5.282;2023-03-08T13:11:39;18.55;;;14.80;;
27666;SDS011;15074;50.940;5.282;2023-03-08T13:14:36;18.75;;;14.40;;
27666;SDS011;15074;50.940;5.282;2023-03-08T13:19:57;20.98;;;14.45;;
27666;SDS011;15074;50.940;5.282;2023-03-08T13:28:10;20.83;;;14.00;;
27666;SDS011;15074;50.940;5.282;2023-03-08T13:30:37;19.17;;;15.25;;
27666;SDS011;15074;50.940;5.282;2023-03-08T13:33:24;18.77;;;14.93;;
27666;SDS011;15074;50.940;5.282;2023-03-08T13:35:59;20.90;;;15.82;;
27666;SDS011;15074;50.940;5.282;2023-03-08T13:40:59;18.00;;;14.60;;
27666;SDS011;15074;50.940;5.282;2023-03-08T13:43:27;19.60;;;16.00;;
27666;SDS011;15074;50.940;5.282;2023-03-08T13:45:55;21.08;;;16.45;;
27666;SDS011;15074;50.940;5.282;2023-03-08T13:48:23;17.38;;;15.30;;
27666;SDS011;15074;50.940;5.282;2023-03-08T13:50:56;18.58;;;15.32;;
27666;SDS011;15074;50.940;5.282;2023-03-08T13:53:24;19.48;;;16.50;;
27666;SDS011;15074;50.940;5.282;2023-03-08T13:55:57;19.20;;;15.30;;
27666;SDS011;15074;50.940;5.282;2023-03-08T13:58:38;20.60;;;16.13;;
27666;SDS011;15074;50.940;5.282;2023-03-08T14:01:15;20.42;;;15.93;;
27666;SDS011;15074;50.940;5.282;2023-03-08T14:03:48;20.25;;;16.20;;
27666;SDS011;15074;50.940;5.282;2023-03-08T14:06:16;20.67;;;16.37;;
27666;SDS011;15074;50.940;5.282;2023-03-08T14:08:42;21.40;;;16.13;;
27666;SDS011;15074;50.940;5.282;2023-03-08T14:11:15;19.70;;;15.73;;
27666;SDS011;15074;50.940;5.282;2023-03-08T14:13:50;22.67;;;17.13;;
27666;SDS011;15074;50.940;5.282;2023-03-08T14:16:37;24.63;;;17.35;;
27666;SDS011;15074;50.940;5.282;2023-03-08T14:24:39;23.00;;;17.27;;
27666;SDS011;15074;50.940;5.282;2023-03-08T14:29:39;29.45;;;18.33;;
27666;SDS011;15074;50.940;5.282;2023-03-08T14:39:36;27.90;;;17.50;;
27666;SDS011;15074;50.940;5.282;2023-03-08T14:42:14;21.52;;;16.63;;
27666;SDS011;15074;50.940;5.282;2023-03-08T14:44:40;25.02;;;16.48;;
27666;SDS011;15074;50.940;5.282;2023-03-08T14:47:07;29.40;;;17.90;;
27666;SDS011;15074;50.940;5.282;2023-03-08T14:49:34;28.02;;;18.75;;
27666;SDS011;15074;50.940;5.282;2023-03-08T14:51:59;25.05;;;17.85;;
27666;SDS011;15074;50.940;5.282;2023-03-08T14:54:33;31.90;;;18.42;;
27666;SDS011;15074;50.940;5.282;2023-03-08T15:02:31;31.98;;;18.15;;
27666;SDS011;15074;50.940;5.282;2023-03-08T15:04:58;33.10;;;19.70;;
27666;SDS011;15074;50.940;5.282;2023-03-08T15:07:24;28.75;;;18.38;;
27666;SDS011;15074;50.940;5.282;2023-03-08T15:09:54;32.03;;;19.42;;
27666;SDS011;15074;50.940;5.282;2023-03-08T15:12:20;32.75;;;19.50;;
27666;SDS011;15074;50.940;5.282;2023-03-08T15:14:45;31.15;;;18.83;;
27666;SDS011;15074;50.940;5.282;2023-03-08T15:17:11;43.08;;;20.45;;
27666;SDS011;15074;50.940;5.282;2023-03-08T15:19:37;28.77;;;18.30;;
27666;SDS011;15074;50.940;5.282;2023-03-08T15:22:03;35.85;;;20.75;;
27666;SDS011;15074;50.940;5.282;2023-03-08T15:24:29;37.97;;;20.33;;
27666;SDS011;15074;50.940;5.282;2023-03-08T15:26:55;35.40;;;21.15;;
27666;SDS011;15074;50.940;5.282;2023-03-08T15:29:28;47.13;;;22.83;;
27666;SDS011;15074;50.940;5.282;2023-03-08T15:31:56;50.60;;;24.60;;
27666;SDS011;15074;50.940;5.282;2023-03-08T15:34:22;53.88;;;24.05;;
27666;SDS011;15074;50.940;5.282;2023-03-08T15:36:49;50.22;;;24.02;;
27666;SDS011;15074;50.940;5.282;2023-03-08T15:39:15;43.58;;;22.92;;
27666;SDS011;15074;50.940;5.282;2023-03-08T15:41:41;53.95;;;24.02;;
27666;SDS011;15074;50.940;5.282;2023-03-08T15:44:07;42.67;;;22.85;;
27666;SDS011;15074;50.940;5.282;2023-03-08T15:46:32;46.55;;;23.58;;
27666;SDS011;15074;50.940;5.282;2023-03-08T15:48:58;54.80;;;25.05;;
27666;SDS011;15074;50.940;5.282;2023-03-08T15:51:34;54.08;;;24.88;;
27666;SDS011;15074;50.940;5.282;2023-03-08T15:54:00;61.65;;;26.52;;
27666;SDS011;15074;50.940;5.282;2023-03-08T15:56:27;53.35;;;24.48;;
27666;SDS011;15074;50.940;5.282;2023-03-08T15:58:53;61.75;;;25.73;;
27666;SDS011;15074;50.940;5.282;2023-03-08T16:01:20;56.85;;;24.30;;
27666;SDS011;15074;50.940;5.282;2023-03-08T16:03:53;51.28;;;24.50;;
27666;SDS011;15074;50.940;5.282;2023-03-08T16:06:20;62.40;;;25.10;;
27666;SDS011;15074;50.940;5.282;2023-03-08T16:08:47;45.20;;;22.58;;
27666;SDS011;15074;50.940;5.282;2023-03-08T16:11:14;50.55;;;24.27;;
27666;SDS011;15074;50.940;5.282;2023-03-08T16:13:41;61.83;;;26.00;;
27666;SDS011;15074;50.940;5.282;2023-03-08T16:16:07;61.75;;;26.75;;
27666;SDS011;15074;50.940;5.282;2023-03-08T16:18:34;55.88;;;24.83;;
27666;SDS011;15074;50.940;5.282;2023-03-08T16:21:04;61.75;;;26.45;;
27666;SDS011;15074;50.940;5.282;2023-03-08T16:23:31;57.03;;;26.65;;
27666;SDS011;15074;50.940;5.282;2023-03-08T16:25:57;54.45;;;25.60;;
27666;SDS011;15074;50.940;5.282;2023-03-08T16:28:28;49.20;;;23.30;;